F/V Argentario — FGPE — position and weather

sailwx.info

Track history (hours):
 
Tides and Currents Weather Stations Pressure Air Temp Water Temp Dewpoint Dewpoint Depression Visibility Wind Speed Wind Dir Waves Ship Positions

F/V Argentario

Last reported at 2017-May-15 07:16 UTC. Time now 2017-May-27 04:15 UTC.
Position N 46°30' W 001°47'.
Warning: this ship's position is 11 days out of date.

Length 22 m; draft 3.4 m.

Type: Fishing. MMSI: 228975000.

Date/timePositionNaut miles runAvg speedWind from/ knotsBaromVisibWave heightAir tempDewpointWater temp
2017-May-15 07:16N 46°30' W 001°47'0 0.0
2017-May-15 07:00N 46°30' W 001°47'0 0.0
2017-May-15 06:30N 46°30' W 001°47'0 0.0
2017-May-15 06:00N 46°30' W 001°47'3 5.5
2017-May-15 05:30N 46°29' W 001°51'5 9.4
2017-May-15 05:00N 46°32' W 001°57'5 9.4
2017-May-15 04:30N 46°35' W 002°02'5 9.3
2017-May-15 04:00N 46°38' W 002°07'5 9.2
2017-May-15 03:30N 46°41' W 002°13'5 9.0
2017-May-15 03:00N 46°43' W 002°18'2 4.1
2017-May-15 02:29N 46°44' W 002°21'  
2017-May-11 15:51N 46°41' W 002°16'3 9.0
2017-May-11 15:29N 46°38' W 002°16'4 9.2
2017-May-11 15:00N 46°34' W 002°17'9 9.2
2017-May-11 13:59N 46°24' W 002°19'5 9.2
2017-May-11 13:29N 46°20' W 002°20'5 9.5
2017-May-11 12:58N 46°15' W 002°21'6 9.7
2017-May-11 12:19N 46°09' W 002°23'18 0.5
2017-May-09 20:32N 46°16' W 001°59'1 5.1
2017-May-09 20:20N 46°16' W 001°58'2 5.3
2017-May-09 20:00N 46°18' W 001°57'3 5.4
2017-May-09 19:30N 46°20' W 001°55'3 5.5
2017-May-09 19:00N 46°23' W 001°53'3 5.4
2017-May-09 18:30N 46°25' W 001°50'3 5.7
2017-May-09 18:00N 46°27' W 001°48'3 5.5
2017-May-09 17:30N 46°30' W 001°47'0 0.0
2017-May-09 17:01N 46°30' W 001°47'2 3.5
2017-May-09 16:30N 46°28' W 001°48'4 8.9
2017-May-09 16:00N 46°24' W 001°51'4 8.8
2017-May-09 15:30N 46°21' W 001°54'4 8.9
2017-May-09 15:00N 46°17' W 001°58'  
Track history (hours):
 
Tides and Currents Weather Stations Pressure Air Temp Water Temp Dewpoint Dewpoint Depression Visibility Wind Speed Wind Dir Waves Ship Positions

F/V Argentario

Last reported at 2017-May-15 07:16 UTC. Time now 2017-May-27 04:15 UTC.
Position N 46°30' W 001°47'.
Warning: this ship's position is 11 days out of date.

Length 22 m; draft 3.4 m.

Type: Fishing. MMSI: 228975000.

Date/timePositionNaut miles runAvg speedWind from/ knotsBaromVisibWave heightAir tempDewpointWater temp
2017-May-15 07:16N 46°30' W 001°47'0 0.0
2017-May-15 07:00N 46°30' W 001°47'0 0.0
2017-May-15 06:30N 46°30' W 001°47'0 0.0
2017-May-15 06:00N 46°30' W 001°47'3 5.5
2017-May-15 05:30N 46°29' W 001°51'5 9.4
2017-May-15 05:00N 46°32' W 001°57'5 9.4
2017-May-15 04:30N 46°35' W 002°02'5 9.3
2017-May-15 04:00N 46°38' W 002°07'5 9.2
2017-May-15 03:30N 46°41' W 002°13'5 9.0
2017-May-15 03:00N 46°43' W 002°18'2 4.1
2017-May-15 02:29N 46°44' W 002°21'  
2017-May-11 15:51N 46°41' W 002°16'3 9.0
2017-May-11 15:29N 46°38' W 002°16'4 9.2
2017-May-11 15:00N 46°34' W 002°17'9 9.2
2017-May-11 13:59N 46°24' W 002°19'5 9.2
2017-May-11 13:29N 46°20' W 002°20'5 9.5
2017-May-11 12:58N 46°15' W 002°21'6 9.7
2017-May-11 12:19N 46°09' W 002°23'18 0.5
2017-May-09 20:32N 46°16' W 001°59'1 5.1
2017-May-09 20:20N 46°16' W 001°58'2 5.3
2017-May-09 20:00N 46°18' W 001°57'3 5.4
2017-May-09 19:30N 46°20' W 001°55'3 5.5
2017-May-09 19:00N 46°23' W 001°53'3 5.4
2017-May-09 18:30N 46°25' W 001°50'3 5.7
2017-May-09 18:00N 46°27' W 001°48'3 5.5
2017-May-09 17:30N 46°30' W 001°47'0 0.0
2017-May-09 17:01N 46°30' W 001°47'2 3.5
2017-May-09 16:30N 46°28' W 001°48'4 8.9
2017-May-09 16:00N 46°24' W 001°51'4 8.8
2017-May-09 15:30N 46°21' W 001°54'4 8.9
2017-May-09 15:00N 46°17' W 001°58'  

Dump ship's entire track history